createdAt,value
2017-12-24T00:02:01.810Z,7.1
2017-12-24T00:07:01.814Z,7
2017-12-24T00:12:01.863Z,7
2017-12-24T00:17:01.801Z,6.9
2017-12-24T00:22:01.807Z,6.9
2017-12-24T00:27:01.823Z,6.8
2017-12-24T00:32:01.798Z,6.8
2017-12-24T00:37:01.994Z,6.7
2017-12-24T00:42:01.793Z,6.7
2017-12-24T00:47:01.798Z,6.7
2017-12-24T00:52:01.998Z,6.7
2017-12-24T00:57:01.899Z,6.6
2017-12-24T01:02:01.952Z,6.6
2017-12-24T01:07:01.990Z,6.6
2017-12-24T01:12:01.795Z,6.6
2017-12-24T01:17:01.817Z,6.6
2017-12-24T01:22:01.955Z,6.5
2017-12-24T01:27:01.996Z,6.5
2017-12-24T01:32:01.845Z,6.5
2017-12-24T01:37:01.831Z,6.4
2017-12-24T01:42:01.835Z,6.4
2017-12-24T01:47:01.862Z,6.3
2017-12-24T01:52:01.844Z,6.2
2017-12-24T01:57:01.959Z,6.2
2017-12-24T02:02:01.849Z,6.1
2017-12-24T02:07:01.830Z,6
2017-12-24T02:12:01.871Z,6
2017-12-24T02:17:01.851Z,6
2017-12-24T02:22:02.017Z,5.9
2017-12-24T02:27:01.846Z,5.9
2017-12-24T02:32:01.858Z,5.8
2017-12-24T02:37:01.871Z,5.7
2017-12-24T02:42:01.862Z,5.7
2017-12-24T02:47:01.859Z,5.6
2017-12-24T02:52:01.961Z,5.6
2017-12-24T02:57:01.892Z,5.5
2017-12-24T03:02:02.076Z,5.5
2017-12-24T03:07:01.877Z,5.5
2017-12-24T03:12:01.888Z,5.6
2017-12-24T03:17:01.892Z,5.6
2017-12-24T03:22:01.883Z,5.7
2017-12-24T03:27:01.876Z,5.7
2017-12-24T03:32:01.893Z,5.7
2017-12-24T03:37:01.893Z,5.7
2017-12-24T03:42:01.979Z,5.7
2017-12-24T03:47:02.000Z,5.7
2017-12-24T03:52:02.046Z,5.7
2017-12-24T03:57:01.928Z,5.7
2017-12-24T04:02:02.006Z,5.7
2017-12-24T04:07:01.923Z,5.7
2017-12-24T04:12:02.074Z,5.7
2017-12-24T04:17:01.914Z,5.7
2017-12-24T04:22:02.054Z,5.7
2017-12-24T04:27:03.072Z,5.7
2017-12-24T04:32:01.931Z,5.7
2017-12-24T04:37:01.985Z,5.7
2017-12-24T04:42:02.113Z,5.7
2017-12-24T04:47:01.918Z,5.7
2017-12-24T04:52:02.024Z,5.7
2017-12-24T04:57:01.938Z,5.7
2017-12-24T05:02:01.944Z,5.7
2017-12-24T05:07:01.960Z,5.7
2017-12-24T05:12:02.148Z,5.7
2017-12-24T05:17:01.932Z,5.7
2017-12-24T05:22:01.943Z,5.6
2017-12-24T05:27:01.961Z,5.6
2017-12-24T05:32:01.956Z,5.6
2017-12-24T05:37:01.951Z,5.6
2017-12-24T05:42:01.965Z,5.6
2017-12-24T05:47:01.958Z,5.5
2017-12-24T05:52:02.057Z,5.5
2017-12-24T05:57:02.085Z,5.5
2017-12-24T06:02:01.993Z,5.5
2017-12-24T06:07:01.955Z,5.5
2017-12-24T06:12:01.983Z,5.5
2017-12-24T06:17:01.982Z,5.4
2017-12-24T06:22:02.000Z,5.4
2017-12-24T06:27:02.125Z,5.4
2017-12-24T06:32:01.997Z,5.3
2017-12-24T06:37:02.137Z,5.3
2017-12-24T06:42:03.077Z,5.3
2017-12-24T06:47:02.004Z,5.3
2017-12-24T06:52:02.126Z,5.3
2017-12-24T06:57:02.167Z,5.3
2017-12-24T07:02:01.990Z,5.3
2017-12-24T07:07:02.007Z,5.3
2017-12-24T07:12:01.995Z,5.3
2017-12-24T07:17:02.003Z,5.3
2017-12-24T07:22:02.037Z,5.3
2017-12-24T07:27:02.011Z,5.3
2017-12-24T07:32:02.057Z,5.2
2017-12-24T07:37:02.022Z,5.3
2017-12-24T07:42:02.021Z,5.2
2017-12-24T07:47:02.040Z,5.2
2017-12-24T07:52:02.025Z,5.1
2017-12-24T07:57:02.025Z,5.2
2017-12-24T08:02:02.170Z,5.1
2017-12-24T08:07:02.043Z,5.2
2017-12-24T08:12:02.038Z,5.3
2017-12-24T08:17:02.043Z,5.4
2017-12-24T08:22:02.041Z,5.5
2017-12-24T08:27:02.053Z,5.5
2017-12-24T08:32:02.060Z,5.6
2017-12-24T08:37:02.043Z,5.6
2017-12-24T08:42:02.070Z,5.6
2017-12-24T08:47:03.124Z,5.7
2017-12-24T08:52:02.073Z,5.7
2017-12-24T08:57:02.057Z,5.8
2017-12-24T09:02:02.056Z,5.8
2017-12-24T09:07:02.119Z,6
2017-12-24T09:12:02.098Z,6
2017-12-24T09:17:02.083Z,6.1
2017-12-24T09:22:02.081Z,6.3
2017-12-24T09:27:02.163Z,6.4
2017-12-24T09:32:02.072Z,6.5
2017-12-24T09:37:02.156Z,6.7
2017-12-24T09:42:02.119Z,6.4
2017-12-24T09:47:02.095Z,6.6
2017-12-24T09:52:02.120Z,6.6
2017-12-24T09:57:12.066Z,6.5
2017-12-24T10:02:02.127Z,6.5
2017-12-24T10:07:02.138Z,6.6
2017-12-24T10:12:02.123Z,6.6
2017-12-24T10:17:02.115Z,6.7
2017-12-24T10:22:02.196Z,6.7
2017-12-24T10:27:02.133Z,6.7
2017-12-24T10:32:02.152Z,6.7
2017-12-24T10:37:02.148Z,6.6
2017-12-24T10:42:02.162Z,6.7
2017-12-24T10:47:02.134Z,6.7
2017-12-24T10:52:02.136Z,6.7
2017-12-24T10:57:02.141Z,6.7
2017-12-24T11:02:02.157Z,6.7
2017-12-24T11:07:02.132Z,6.8
2017-12-24T11:12:02.180Z,6.8
2017-12-24T11:17:02.132Z,6.8
2017-12-24T11:22:02.152Z,6.8
2017-12-24T11:27:02.137Z,6.8
2017-12-24T11:32:02.847Z,6.9
2017-12-24T11:37:02.174Z,6.9
2017-12-24T11:42:02.164Z,6.8
2017-12-24T11:47:02.172Z,6.9
2017-12-24T11:52:02.167Z,7.1
2017-12-24T11:57:02.157Z,7.3
2017-12-24T12:02:02.177Z,7.5
2017-12-24T12:07:02.193Z,7.7
2017-12-24T12:12:02.182Z,7.6
2017-12-24T12:17:02.217Z,7.9
2017-12-24T12:22:02.165Z,8
2017-12-24T12:27:02.185Z,8.2
2017-12-24T12:32:02.258Z,8.2
2017-12-24T12:37:02.188Z,8.2
2017-12-24T12:42:02.336Z,8.4
2017-12-24T12:47:02.834Z,8.5
2017-12-24T12:52:03.474Z,8.5
2017-12-24T12:57:12.397Z,8.6
2017-12-24T13:02:02.375Z,8.9
2017-12-24T13:07:02.340Z,8.8
2017-12-24T13:12:02.341Z,8.6
2017-12-24T13:17:02.352Z,8.5
2017-12-24T13:22:02.351Z,8.5
2017-12-24T13:27:02.490Z,8.6
2017-12-24T13:32:02.334Z,8.6
2017-12-24T13:37:02.551Z,8.2
2017-12-24T13:42:02.346Z,8.1
2017-12-24T13:47:02.389Z,8.2
2017-12-24T13:52:02.344Z,7.9
2017-12-24T13:57:02.344Z,8
2017-12-24T14:02:02.348Z,7.8
2017-12-24T14:07:02.376Z,7.8
2017-12-24T14:12:02.356Z,7.7
2017-12-24T14:17:02.349Z,7.6
2017-12-24T14:22:02.457Z,7.5
2017-12-24T14:27:02.372Z,7.3
2017-12-24T14:32:02.490Z,7.2
2017-12-24T14:37:02.497Z,7.1
2017-12-24T14:42:02.420Z,7
2017-12-24T14:47:02.421Z,6.9
2017-12-24T14:52:02.379Z,6.7
2017-12-24T14:57:02.535Z,6.6
2017-12-24T15:02:02.455Z,6.4
2017-12-24T15:07:02.371Z,6.4
2017-12-24T15:12:02.382Z,6.3
2017-12-24T15:17:02.431Z,6.2
2017-12-24T15:22:02.411Z,6
2017-12-24T15:27:02.411Z,6
2017-12-24T15:33:14.569Z,6
2017-12-24T15:40:28.829Z,5.7
2017-12-24T15:45:28.781Z,5.6
2017-12-24T15:50:28.910Z,5.5
2017-12-24T16:00:11.808Z,5.3
2017-12-24T16:05:11.811Z,5.2
2017-12-24T16:10:11.814Z,5
2017-12-24T16:15:11.842Z,5
2017-12-24T16:20:11.882Z,4.9
2017-12-24T17:09:09.507Z,3.6
2017-12-24T17:14:09.515Z,3.5
2017-12-24T17:19:09.512Z,3.4
2017-12-24T17:24:10.603Z,3.3
2017-12-24T17:29:21.387Z,3.3
2017-12-24T17:34:21.387Z,3.2
2017-12-24T17:39:21.395Z,3
2017-12-24T17:44:21.457Z,3.1
2017-12-24T17:49:21.368Z,3.1
2017-12-24T17:54:21.500Z,2.9
2017-12-24T17:59:21.538Z,2.8
2017-12-24T18:04:21.386Z,2.7
2017-12-24T18:09:21.494Z,2.7
2017-12-24T18:14:21.528Z,2.7
2017-12-24T18:19:22.404Z,2.7
2017-12-24T18:24:21.423Z,2.7
2017-12-24T18:29:21.424Z,2.6
2017-12-24T18:34:21.419Z,2.4
2017-12-24T18:39:21.429Z,2.4
2017-12-24T18:44:21.450Z,2.4
2017-12-24T18:49:21.449Z,2.4
2017-12-24T18:54:21.586Z,2.3
2017-12-24T18:59:21.612Z,2.2
2017-12-24T19:04:21.437Z,2.2
2017-12-24T19:10:18.789Z,2
2017-12-24T19:17:12.720Z,1.9
2017-12-24T19:22:12.740Z,1.9
2017-12-24T19:27:12.726Z,2
2017-12-24T19:32:12.781Z,1.9
2017-12-24T19:37:12.830Z,1.9
2017-12-24T19:42:12.742Z,1.8
2017-12-24T19:47:12.742Z,1.8
2017-12-24T19:52:12.945Z,1.8
2017-12-24T19:57:12.943Z,1.9
2017-12-24T20:02:12.907Z,1.9
2017-12-24T20:07:12.914Z,1.9
2017-12-24T20:12:12.839Z,2.1
2017-12-24T20:17:12.759Z,1.9
2017-12-24T20:22:12.794Z,1.9
2017-12-24T20:27:12.812Z,2
2017-12-24T20:32:12.785Z,2.1
2017-12-24T20:37:12.778Z,2.1
2017-12-24T20:42:12.948Z,2.2
2017-12-24T20:47:12.776Z,2.2
2017-12-24T20:52:13.013Z,2.2
2017-12-24T20:57:12.920Z,2.2
2017-12-24T21:02:12.772Z,2.2
2017-12-24T21:07:12.806Z,2.3
2017-12-24T21:12:12.764Z,2.5
2017-12-24T21:17:12.811Z,2.4
2017-12-24T21:22:12.982Z,2.5
2017-12-24T21:27:12.875Z,2.5
2017-12-24T21:32:12.800Z,2.5
2017-12-24T21:37:12.825Z,2.5
2017-12-24T21:42:12.803Z,2.6
2017-12-24T21:47:12.811Z,2.5
2017-12-24T21:52:12.789Z,2.5
2017-12-24T21:57:12.981Z,2.5
2017-12-24T22:02:12.810Z,2.4
2017-12-24T22:07:12.899Z,2.5
2017-12-24T22:12:12.823Z,2.5
2017-12-24T22:17:12.859Z,2.4
2017-12-24T22:22:12.798Z,2.5
2017-12-24T22:27:12.869Z,2.5
2017-12-24T22:32:12.805Z,2.5
2017-12-24T22:37:12.833Z,2.6
2017-12-24T22:42:12.848Z,2.7
2017-12-24T22:47:12.846Z,2.7
2017-12-24T22:52:12.861Z,2.7
2017-12-24T22:57:12.835Z,2.8
2017-12-24T23:02:12.832Z,2.8
2017-12-24T23:07:12.854Z,2.8
2017-12-24T23:12:12.843Z,2.9
2017-12-24T23:17:12.829Z,2.9
2017-12-24T23:22:12.964Z,2.9
2017-12-24T23:27:12.850Z,2.9
2017-12-24T23:32:12.857Z,3
2017-12-24T23:37:12.872Z,3
2017-12-24T23:42:12.999Z,3
2017-12-24T23:47:12.862Z,3.1
2017-12-24T23:52:12.889Z,3
2017-12-24T23:57:12.900Z,3
